Storia di METAR Noord Nederlandse Zweefvliegclub (NL-0036)

23 settembre 2022

Tempo Codice Tempo metereologico Temp. Vista Base nuvolosa Vento METAR/SPECI
10:20
V
13 °C 10 km+ 30.000 ft 190° 190° 6 kt METAR ETND 230820Z 19006KT 9999 SCT270 BKN300 13/08 Q1017 BLU+
09:20
V
9 °C 10 km+ 30.000 ft 160° 160° 4 kt METAR ETND 230720Z 16004KT 9999 FEW210 BKN300 09/07 Q1017 BLU+
08:20
V
7 °C 10 km+ 30.000 ft Var 000° 0 kt METAR ETND 230620Z 00000KT 9999 MIFG FEW210 BKN300 07/06 Q1017 BLU+
07:20
V
6 °C 10 km+ 21.000 ft 140° 140° 2 kt METAR ETND 230520Z 14002KT 9999 MIFG FEW150 BKN210 06/05 Q1017 BLU+
06:20
V
6 °C 10 km+ 21.000 ft 140° 140° 2 kt METAR ETND 230420Z 14002KT 9999 BKN210 06/06 Q1017 BLU+
Dati più vecchi

Noi e le terze parti seguiamo il tuo comportamento in internet sul nostro sito web con i cookie. Se continui, riteniamo che tu sia d'accordo con la nostra politica sui cookie. Per saperne di più